sensor_id;sensor_type;location;lat;lon;timestamp;P1;durP1;ratioP1;P2;durP2;ratioP2
6089;SDS011;3073;42.660;23.316;2023-02-28T00:01:04;42.83;;;23.17;;
6089;SDS011;3073;42.660;23.316;2023-02-28T00:03:31;35.90;;;19.50;;
6089;SDS011;3073;42.660;23.316;2023-02-28T00:06:04;37.03;;;19.50;;
6089;SDS011;3073;42.660;23.316;2023-02-28T00:08:34;31.07;;;17.93;;
6089;SDS011;3073;42.660;23.316;2023-02-28T00:11:03;34.27;;;18.70;;
6089;SDS011;3073;42.660;23.316;2023-02-28T00:13:31;34.93;;;17.60;;
6089;SDS011;3073;42.660;23.316;2023-02-28T00:16:00;26.37;;;14.90;;
6089;SDS011;3073;42.660;23.316;2023-02-28T00:18:28;29.73;;;16.87;;
6089;SDS011;3073;42.660;23.316;2023-02-28T00:20:56;35.23;;;18.33;;
6089;SDS011;3073;42.660;23.316;2023-02-28T00:23:23;32.63;;;15.57;;
6089;SDS011;3073;42.660;23.316;2023-02-28T00:25:50;27.57;;;15.43;;
6089;SDS011;3073;42.660;23.316;2023-02-28T00:28:18;24.30;;;15.07;;
6089;SDS011;3073;42.660;23.316;2023-02-28T00:30:45;27.37;;;14.60;;
6089;SDS011;3073;42.660;23.316;2023-02-28T00:33:12;28.70;;;14.60;;
6089;SDS011;3073;42.660;23.316;2023-02-28T00:35:39;25.33;;;14.50;;
6089;SDS011;3073;42.660;23.316;2023-02-28T00:38:06;20.47;;;13.57;;
6089;SDS011;3073;42.660;23.316;2023-02-28T00:40:33;23.53;;;14.50;;
6089;SDS011;3073;42.660;23.316;2023-02-28T00:43:00;25.20;;;14.83;;
6089;SDS011;3073;42.660;23.316;2023-02-28T00:45:29;25.27;;;15.47;;
6089;SDS011;3073;42.660;23.316;2023-02-28T00:47:56;35.43;;;16.27;;
6089;SDS011;3073;42.660;23.316;2023-02-28T00:50:24;33.00;;;17.63;;
6089;SDS011;3073;42.660;23.316;2023-02-28T00:52:51;30.03;;;16.80;;
6089;SDS011;3073;42.660;23.316;2023-02-28T00:55:18;36.97;;;17.07;;
6089;SDS011;3073;42.660;23.316;2023-02-28T00:57:44;34.10;;;18.57;;
6089;SDS011;3073;42.660;23.316;2023-02-28T01:00:12;29.47;;;17.97;;
6089;SDS011;3073;42.660;23.316;2023-02-28T01:02:40;30.17;;;17.03;;
6089;SDS011;3073;42.660;23.316;2023-02-28T01:05:07;31.30;;;19.30;;
6089;SDS011;3073;42.660;23.316;2023-02-28T01:07:34;33.30;;;18.23;;
6089;SDS011;3073;42.660;23.316;2023-02-28T01:10:01;35.33;;;19.87;;
6089;SDS011;3073;42.660;23.316;2023-02-28T01:12:35;31.73;;;18.23;;
6089;SDS011;3073;42.660;23.316;2023-02-28T01:15:02;35.50;;;19.20;;
6089;SDS011;3073;42.660;23.316;2023-02-28T01:17:29;33.43;;;18.73;;
6089;SDS011;3073;42.660;23.316;2023-02-28T01:19:58;32.83;;;19.77;;
6089;SDS011;3073;42.660;23.316;2023-02-28T01:22:25;29.77;;;18.77;;
6089;SDS011;3073;42.660;23.316;2023-02-28T01:24:52;40.00;;;19.30;;
6089;SDS011;3073;42.660;23.316;2023-02-28T01:27:19;35.33;;;18.80;;
6089;SDS011;3073;42.660;23.316;2023-02-28T01:29:46;32.77;;;18.50;;
6089;SDS011;3073;42.660;23.316;2023-02-28T01:32:13;31.50;;;19.37;;
6089;SDS011;3073;42.660;23.316;2023-02-28T01:34:39;34.63;;;19.70;;
6089;SDS011;3073;42.660;23.316;2023-02-28T01:37:08;39.73;;;21.57;;
6089;SDS011;3073;42.660;23.316;2023-02-28T01:39:34;41.20;;;21.50;;
6089;SDS011;3073;42.660;23.316;2023-02-28T01:42:01;42.77;;;22.23;;
6089;SDS011;3073;42.660;23.316;2023-02-28T01:47:21;41.43;;;23.47;;
6089;SDS011;3073;42.660;23.316;2023-02-28T01:49:50;45.20;;;23.80;;
6089;SDS011;3073;42.660;23.316;2023-02-28T01:52:19;40.23;;;22.30;;
6089;SDS011;3073;42.660;23.316;2023-02-28T01:54:51;46.63;;;25.50;;
6089;SDS011;3073;42.660;23.316;2023-02-28T01:57:21;48.30;;;24.77;;
6089;SDS011;3073;42.660;23.316;2023-02-28T01:59:51;51.43;;;27.77;;
6089;SDS011;3073;42.660;23.316;2023-02-28T02:02:23;38.67;;;22.70;;
6089;SDS011;3073;42.660;23.316;2023-02-28T02:04:53;40.90;;;23.77;;
6089;SDS011;3073;42.660;23.316;2023-02-28T02:07:24;48.57;;;26.40;;
6089;SDS011;3073;42.660;23.316;2023-02-28T02:09:59;41.67;;;24.63;;
6089;SDS011;3073;42.660;23.316;2023-02-28T02:12:29;44.57;;;23.80;;
6089;SDS011;3073;42.660;23.316;2023-02-28T02:15:05;40.40;;;22.90;;
6089;SDS011;3073;42.660;23.316;2023-02-28T02:17:39;41.90;;;24.40;;
6089;SDS011;3073;42.660;23.316;2023-02-28T02:26:44;59.30;;;29.20;;
6089;SDS011;3073;42.660;23.316;2023-02-28T02:29:24;79.40;;;35.60;;
6089;SDS011;3073;42.660;23.316;2023-02-28T02:35:21;68.77;;;34.77;;
6089;SDS011;3073;42.660;23.316;2023-02-28T02:37:56;75.10;;;35.60;;
6089;SDS011;3073;42.660;23.316;2023-02-28T02:40:33;116.07;;;35.23;;
6089;SDS011;3073;42.660;23.316;2023-02-28T02:43:06;72.50;;;37.43;;
6089;SDS011;3073;42.660;23.316;2023-02-28T02:45:38;96.37;;;38.40;;
6089;SDS011;3073;42.660;23.316;2023-02-28T02:48:09;96.17;;;39.53;;
6089;SDS011;3073;42.660;23.316;2023-02-28T02:50:43;86.13;;;38.90;;
6089;SDS011;3073;42.660;23.316;2023-02-28T02:53:13;136.23;;;40.03;;
6089;SDS011;3073;42.660;23.316;2023-02-28T02:55:44;108.77;;;37.27;;
6089;SDS011;3073;42.660;23.316;2023-02-28T02:58:18;95.87;;;40.27;;
6089;SDS011;3073;42.660;23.316;2023-02-28T03:00:50;96.67;;;36.33;;
6089;SDS011;3073;42.660;23.316;2023-02-28T03:03:21;87.57;;;38.17;;
6089;SDS011;3073;42.660;23.316;2023-02-28T03:05:55;91.37;;;36.80;;
6089;SDS011;3073;42.660;23.316;2023-02-28T03:08:23;113.13;;;40.67;;
6089;SDS011;3073;42.660;23.316;2023-02-28T03:10:50;79.77;;;38.17;;
6089;SDS011;3073;42.660;23.316;2023-02-28T03:13:26;86.73;;;38.77;;
6089;SDS011;3073;42.660;23.316;2023-02-28T03:16:13;85.77;;;38.27;;
6089;SDS011;3073;42.660;23.316;2023-02-28T03:19:00;76.67;;;36.93;;
6089;SDS011;3073;42.660;23.316;2023-02-28T03:21:35;94.57;;;36.60;;
6089;SDS011;3073;42.660;23.316;2023-02-28T03:24:08;80.87;;;35.73;;
6089;SDS011;3073;42.660;23.316;2023-02-28T03:26:38;80.33;;;37.00;;
6089;SDS011;3073;42.660;23.316;2023-02-28T03:29:10;79.80;;;34.27;;
6089;SDS011;3073;42.660;23.316;2023-02-28T03:31:44;67.77;;;32.97;;
6089;SDS011;3073;42.660;23.316;2023-02-28T03:34:16;84.17;;;34.17;;
6089;SDS011;3073;42.660;23.316;2023-02-28T03:36:51;114.00;;;34.40;;
6089;SDS011;3073;42.660;23.316;2023-02-28T03:39:23;79.47;;;33.13;;
6089;SDS011;3073;42.660;23.316;2023-02-28T03:41:58;67.53;;;32.70;;
6089;SDS011;3073;42.660;23.316;2023-02-28T03:44:32;79.50;;;34.07;;
6089;SDS011;3073;42.660;23.316;2023-02-28T03:47:02;67.20;;;31.60;;
6089;SDS011;3073;42.660;23.316;2023-02-28T03:49:34;71.77;;;34.73;;
6089;SDS011;3073;42.660;23.316;2023-02-28T03:52:05;67.10;;;32.20;;
6089;SDS011;3073;42.660;23.316;2023-02-28T03:54:35;63.87;;;31.80;;
6089;SDS011;3073;42.660;23.316;2023-02-28T03:57:08;70.70;;;31.47;;
6089;SDS011;3073;42.660;23.316;2023-02-28T03:59:42;62.83;;;31.13;;
6089;SDS011;3073;42.660;23.316;2023-02-28T04:02:14;60.43;;;29.47;;
6089;SDS011;3073;42.660;23.316;2023-02-28T04:04:41;63.87;;;31.80;;
6089;SDS011;3073;42.660;23.316;2023-02-28T04:07:15;62.83;;;31.27;;
6089;SDS011;3073;42.660;23.316;2023-02-28T04:09:42;75.03;;;29.67;;
6089;SDS011;3073;42.660;23.316;2023-02-28T04:12:09;59.53;;;31.40;;
6089;SDS011;3073;42.660;23.316;2023-02-28T04:14:41;54.27;;;28.60;;
6089;SDS011;3073;42.660;23.316;2023-02-28T04:17:08;60.03;;;30.40;;
6089;SDS011;3073;42.660;23.316;2023-02-28T04:19:35;78.77;;;30.87;;
6089;SDS011;3073;42.660;23.316;2023-02-28T04:22:02;63.63;;;30.10;;
6089;SDS011;3073;42.660;23.316;2023-02-28T04:24:31;61.83;;;31.37;;
6089;SDS011;3073;42.660;23.316;2023-02-28T04:26:57;62.83;;;31.47;;
6089;SDS011;3073;42.660;23.316;2023-02-28T04:29:26;74.83;;;34.17;;
6089;SDS011;3073;42.660;23.316;2023-02-28T04:31:53;53.73;;;26.83;;
6089;SDS011;3073;42.660;23.316;2023-02-28T04:34:23;61.80;;;28.43;;
6089;SDS011;3073;42.660;23.316;2023-02-28T04:36:50;65.00;;;28.43;;
6089;SDS011;3073;42.660;23.316;2023-02-28T04:39:19;47.97;;;25.20;;
6089;SDS011;3073;42.660;23.316;2023-02-28T04:41:47;49.20;;;25.47;;
6089;SDS011;3073;42.660;23.316;2023-02-28T04:44:14;55.90;;;27.00;;
6089;SDS011;3073;42.660;23.316;2023-02-28T04:46:42;75.40;;;27.20;;
6089;SDS011;3073;42.660;23.316;2023-02-28T04:49:10;60.93;;;28.00;;
6089;SDS011;3073;42.660;23.316;2023-02-28T04:51:38;55.83;;;26.93;;
6089;SDS011;3073;42.660;23.316;2023-02-28T04:54:04;52.80;;;25.30;;
6089;SDS011;3073;42.660;23.316;2023-02-28T04:56:32;55.40;;;24.30;;
6089;SDS011;3073;42.660;23.316;2023-02-28T04:59:00;56.73;;;25.20;;
6089;SDS011;3073;42.660;23.316;2023-02-28T05:01:28;46.03;;;23.67;;
6089;SDS011;3073;42.660;23.316;2023-02-28T05:03:58;47.10;;;23.27;;
6089;SDS011;3073;42.660;23.316;2023-02-28T05:06:26;46.17;;;22.47;;
6089;SDS011;3073;42.660;23.316;2023-02-28T05:08:55;49.07;;;23.40;;
6089;SDS011;3073;42.660;23.316;2023-02-28T05:11:23;54.80;;;27.57;;
6089;SDS011;3073;42.660;23.316;2023-02-28T05:13:52;61.90;;;29.80;;
6089;SDS011;3073;42.660;23.316;2023-02-28T05:16:22;50.20;;;23.97;;
6089;SDS011;3073;42.660;23.316;2023-02-28T05:18:49;49.77;;;23.23;;
6089;SDS011;3073;42.660;23.316;2023-02-28T05:21:26;46.77;;;24.13;;
6089;SDS011;3073;42.660;23.316;2023-02-28T05:23:56;42.27;;;23.07;;
6089;SDS011;3073;42.660;23.316;2023-02-28T05:26:26;47.67;;;23.23;;
6089;SDS011;3073;42.660;23.316;2023-02-28T05:28:54;48.37;;;23.97;;
6089;SDS011;3073;42.660;23.316;2023-02-28T05:31:22;49.60;;;22.57;;
6089;SDS011;3073;42.660;23.316;2023-02-28T05:33:50;53.23;;;22.50;;
6089;SDS011;3073;42.660;23.316;2023-02-28T05:36:17;51.77;;;24.13;;
6089;SDS011;3073;42.660;23.316;2023-02-28T05:38:45;50.27;;;24.13;;
6089;SDS011;3073;42.660;23.316;2023-02-28T05:41:14;47.57;;;22.70;;
6089;SDS011;3073;42.660;23.316;2023-02-28T05:43:42;52.50;;;23.10;;
6089;SDS011;3073;42.660;23.316;2023-02-28T05:46:10;42.83;;;21.83;;
6089;SDS011;3073;42.660;23.316;2023-02-28T05:48:40;50.00;;;23.30;;
6089;SDS011;3073;42.660;23.316;2023-02-28T05:51:08;47.73;;;22.60;;
6089;SDS011;3073;42.660;23.316;2023-02-28T05:53:35;41.90;;;21.70;;
6089;SDS011;3073;42.660;23.316;2023-02-28T05:56:03;48.10;;;23.77;;
6089;SDS011;3073;42.660;23.316;2023-02-28T05:58:30;47.90;;;22.60;;
6089;SDS011;3073;42.660;23.316;2023-02-28T06:00:58;54.70;;;24.87;;
6089;SDS011;3073;42.660;23.316;2023-02-28T06:03:26;64.43;;;26.63;;
6089;SDS011;3073;42.660;23.316;2023-02-28T06:05:55;56.70;;;26.90;;
6089;SDS011;3073;42.660;23.316;2023-02-28T06:08:22;60.37;;;28.47;;
6089;SDS011;3073;42.660;23.316;2023-02-28T06:10:49;62.13;;;28.73;;
6089;SDS011;3073;42.660;23.316;2023-02-28T06:13:15;66.03;;;30.27;;
6089;SDS011;3073;42.660;23.316;2023-02-28T06:15:42;65.60;;;30.83;;
6089;SDS011;3073;42.660;23.316;2023-02-28T06:18:09;63.00;;;29.83;;
6089;SDS011;3073;42.660;23.316;2023-02-28T06:20:36;63.87;;;30.57;;
6089;SDS011;3073;42.660;23.316;2023-02-28T06:23:04;63.67;;;31.57;;
6089;SDS011;3073;42.660;23.316;2023-02-28T06:25:33;61.67;;;30.23;;
6089;SDS011;3073;42.660;23.316;2023-02-28T06:28:00;65.07;;;31.27;;
6089;SDS011;3073;42.660;23.316;2023-02-28T06:30:27;62.83;;;31.47;;
6089;SDS011;3073;42.660;23.316;2023-02-28T06:32:56;62.73;;;31.20;;
6089;SDS011;3073;42.660;23.316;2023-02-28T06:35:23;65.33;;;32.20;;
6089;SDS011;3073;42.660;23.316;2023-02-28T06:37:49;73.97;;;36.43;;
6089;SDS011;3073;42.660;23.316;2023-02-28T06:40:18;71.50;;;33.07;;
6089;SDS011;3073;42.660;23.316;2023-02-28T06:42:45;65.80;;;32.47;;
6089;SDS011;3073;42.660;23.316;2023-02-28T06:45:14;64.43;;;32.30;;
6089;SDS011;3073;42.660;23.316;2023-02-28T06:47:41;61.63;;;32.00;;
6089;SDS011;3073;42.660;23.316;2023-02-28T06:50:09;60.53;;;31.83;;
6089;SDS011;3073;42.660;23.316;2023-02-28T06:52:38;58.67;;;31.30;;
6089;SDS011;3073;42.660;23.316;2023-02-28T06:55:05;59.37;;;27.83;;
6089;SDS011;3073;42.660;23.316;2023-02-28T06:57:35;63.90;;;30.93;;
6089;SDS011;3073;42.660;23.316;2023-02-28T07:00:03;58.50;;;30.67;;
6089;SDS011;3073;42.660;23.316;2023-02-28T07:02:33;51.77;;;27.30;;
6089;SDS011;3073;42.660;23.316;2023-02-28T07:05:00;49.30;;;28.00;;
6089;SDS011;3073;42.660;23.316;2023-02-28T07:07:27;53.07;;;27.33;;
6089;SDS011;3073;42.660;23.316;2023-02-28T07:09:54;54.80;;;28.60;;
6089;SDS011;3073;42.660;23.316;2023-02-28T07:12:21;59.43;;;28.50;;
6089;SDS011;3073;42.660;23.316;2023-02-28T07:14:50;55.57;;;29.80;;
6089;SDS011;3073;42.660;23.316;2023-02-28T07:17:17;51.07;;;29.17;;
6089;SDS011;3073;42.660;23.316;2023-02-28T07:19:43;56.87;;;30.33;;
6089;SDS011;3073;42.660;23.316;2023-02-28T07:22:10;63.63;;;31.37;;
6089;SDS011;3073;42.660;23.316;2023-02-28T07:24:44;65.80;;;29.80;;
6089;SDS011;3073;42.660;23.316;2023-02-28T07:27:37;60.77;;;29.73;;
6089;SDS011;3073;42.660;23.316;2023-02-28T07:30:06;55.00;;;28.23;;
6089;SDS011;3073;42.660;23.316;2023-02-28T07:32:48;63.80;;;30.67;;
6089;SDS011;3073;42.660;23.316;2023-02-28T07:35:20;52.30;;;28.40;;
6089;SDS011;3073;42.660;23.316;2023-02-28T07:37:47;63.33;;;29.73;;
6089;SDS011;3073;42.660;23.316;2023-02-28T07:40:14;68.33;;;29.80;;
6089;SDS011;3073;42.660;23.316;2023-02-28T07:42:43;56.57;;;29.67;;
6089;SDS011;3073;42.660;23.316;2023-02-28T07:45:12;56.33;;;29.83;;
6089;SDS011;3073;42.660;23.316;2023-02-28T07:47:39;62.53;;;32.30;;
6089;SDS011;3073;42.660;23.316;2023-02-28T07:50:09;56.87;;;31.23;;
6089;SDS011;3073;42.660;23.316;2023-02-28T07:52:38;60.20;;;31.23;;
6089;SDS011;3073;42.660;23.316;2023-02-28T07:55:06;65.83;;;32.10;;
6089;SDS011;3073;42.660;23.316;2023-02-28T07:57:35;65.53;;;30.40;;
6089;SDS011;3073;42.660;23.316;2023-02-28T08:00:03;54.63;;;31.67;;
6089;SDS011;3073;42.660;23.316;2023-02-28T08:02:32;67.47;;;30.60;;
6089;SDS011;3073;42.660;23.316;2023-02-28T08:04:59;58.20;;;31.20;;
6089;SDS011;3073;42.660;23.316;2023-02-28T08:07:26;55.37;;;31.27;;
6089;SDS011;3073;42.660;23.316;2023-02-28T08:09:53;58.70;;;30.00;;
6089;SDS011;3073;42.660;23.316;2023-02-28T08:12:20;53.23;;;29.97;;
6089;SDS011;3073;42.660;23.316;2023-02-28T08:14:47;52.93;;;29.80;;
6089;SDS011;3073;42.660;23.316;2023-02-28T08:17:14;52.50;;;31.00;;
6089;SDS011;3073;42.660;23.316;2023-02-28T08:19:42;66.30;;;30.17;;
6089;SDS011;3073;42.660;23.316;2023-02-28T08:22:11;57.03;;;28.93;;
6089;SDS011;3073;42.660;23.316;2023-02-28T08:24:39;52.97;;;28.60;;
6089;SDS011;3073;42.660;23.316;2023-02-28T08:27:07;52.97;;;27.73;;
6089;SDS011;3073;42.660;23.316;2023-02-28T08:29:34;59.13;;;28.43;;
6089;SDS011;3073;42.660;23.316;2023-02-28T08:32:03;57.90;;;28.37;;
6089;SDS011;3073;42.660;23.316;2023-02-28T08:34:30;67.80;;;29.30;;
6089;SDS011;3073;42.660;23.316;2023-02-28T08:36:59;71.67;;;34.17;;
6089;SDS011;3073;42.660;23.316;2023-02-28T08:39:26;68.53;;;34.37;;
6089;SDS011;3073;42.660;23.316;2023-02-28T08:41:52;60.93;;;30.53;;
6089;SDS011;3073;42.660;23.316;2023-02-28T08:44:19;56.23;;;28.30;;
6089;SDS011;3073;42.660;23.316;2023-02-28T08:46:46;52.33;;;28.40;;
6089;SDS011;3073;42.660;23.316;2023-02-28T08:49:13;55.87;;;29.30;;
6089;SDS011;3073;42.660;23.316;2023-02-28T08:51:40;63.00;;;31.10;;
6089;SDS011;3073;42.660;23.316;2023-02-28T08:54:09;60.43;;;32.40;;
6089;SDS011;3073;42.660;23.316;2023-02-28T08:56:37;63.63;;;33.53;;
6089;SDS011;3073;42.660;23.316;2023-02-28T08:59:05;65.90;;;36.30;;
6089;SDS011;3073;42.660;23.316;2023-02-28T09:01:32;65.73;;;34.53;;
6089;SDS011;3073;42.660;23.316;2023-02-28T09:03:59;68.07;;;36.23;;
6089;SDS011;3073;42.660;23.316;2023-02-28T09:06:27;71.60;;;36.83;;
6089;SDS011;3073;42.660;23.316;2023-02-28T09:08:55;91.40;;;39.63;;
6089;SDS011;3073;42.660;23.316;2023-02-28T09:11:26;86.77;;;40.73;;
6089;SDS011;3073;42.660;23.316;2023-02-28T09:13:53;103.27;;;40.83;;
6089;SDS011;3073;42.660;23.316;2023-02-28T09:16:21;100.83;;;40.30;;
6089;SDS011;3073;42.660;23.316;2023-02-28T09:18:48;83.40;;;40.47;;
6089;SDS011;3073;42.660;23.316;2023-02-28T09:21:16;88.50;;;38.47;;
6089;SDS011;3073;42.660;23.316;2023-02-28T09:23:45;83.13;;;40.50;;
6089;SDS011;3073;42.660;23.316;2023-02-28T09:26:14;87.60;;;38.30;;
6089;SDS011;3073;42.660;23.316;2023-02-28T09:28:42;98.00;;;43.17;;
6089;SDS011;3073;42.660;23.316;2023-02-28T09:31:13;86.47;;;39.23;;
6089;SDS011;3073;42.660;23.316;2023-02-28T09:33:41;91.07;;;38.37;;
6089;SDS011;3073;42.660;23.316;2023-02-28T09:36:08;108.43;;;38.23;;
6089;SDS011;3073;42.660;23.316;2023-02-28T09:38:35;82.80;;;40.50;;
6089;SDS011;3073;42.660;23.316;2023-02-28T09:41:03;82.83;;;37.10;;
6089;SDS011;3073;42.660;23.316;2023-02-28T09:43:38;91.20;;;40.47;;
6089;SDS011;3073;42.660;23.316;2023-02-28T09:46:14;84.67;;;38.40;;
6089;SDS011;3073;42.660;23.316;2023-02-28T09:48:51;87.73;;;40.00;;
6089;SDS011;3073;42.660;23.316;2023-02-28T09:51:27;80.73;;;38.30;;
6089;SDS011;3073;42.660;23.316;2023-02-28T09:54:09;95.33;;;42.80;;
6089;SDS011;3073;42.660;23.316;2023-02-28T09:56:44;106.50;;;47.03;;
6089;SDS011;3073;42.660;23.316;2023-02-28T09:59:19;90.90;;;40.83;;
6089;SDS011;3073;42.660;23.316;2023-02-28T10:01:59;87.27;;;41.17;;
6089;SDS011;3073;42.660;23.316;2023-02-28T10:04:40;91.40;;;40.10;;
6089;SDS011;3073;42.660;23.316;2023-02-28T10:07:18;84.33;;;39.57;;
6089;SDS011;3073;42.660;23.316;2023-02-28T10:09:56;84.57;;;39.60;;
6089;SDS011;3073;42.660;23.316;2023-02-28T10:12:26;71.97;;;37.60;;
6089;SDS011;3073;42.660;23.316;2023-02-28T10:14:56;72.07;;;32.13;;
6089;SDS011;3073;42.660;23.316;2023-02-28T10:17:29;69.97;;;28.17;;
6089;SDS011;3073;42.660;23.316;2023-02-28T10:20:05;56.73;;;22.67;;
6089;SDS011;3073;42.660;23.316;2023-02-28T10:22:40;31.67;;;14.70;;
6089;SDS011;3073;42.660;23.316;2023-02-28T10:25:17;31.93;;;15.70;;
6089;SDS011;3073;42.660;23.316;2023-02-28T10:27:46;41.80;;;16.67;;
6089;SDS011;3073;42.660;23.316;2023-02-28T10:30:13;44.33;;;17.30;;
6089;SDS011;3073;42.660;23.316;2023-02-28T10:32:43;34.93;;;17.60;;
6089;SDS011;3073;42.660;23.316;2023-02-28T10:35:15;33.83;;;16.07;;
6089;SDS011;3073;42.660;23.316;2023-02-28T10:37:44;32.30;;;16.37;;
6089;SDS011;3073;42.660;23.316;2023-02-28T10:40:24;39.70;;;16.77;;
6089;SDS011;3073;42.660;23.316;2023-02-28T10:42:54;47.97;;;16.07;;
6089;SDS011;3073;42.660;23.316;2023-02-28T10:45:23;39.57;;;15.90;;
6089;SDS011;3073;42.660;23.316;2023-02-28T10:47:53;29.67;;;15.17;;
6089;SDS011;3073;42.660;23.316;2023-02-28T10:50:30;37.13;;;13.40;;
6089;SDS011;3073;42.660;23.316;2023-02-28T10:53:24;43.47;;;14.37;;
6089;SDS011;3073;42.660;23.316;2023-02-28T10:55:58;33.03;;;14.90;;
6089;SDS011;3073;42.660;23.316;2023-02-28T10:58:27;26.27;;;13.10;;
6089;SDS011;3073;42.660;23.316;2023-02-28T11:00:55;34.47;;;13.90;;
6089;SDS011;3073;42.660;23.316;2023-02-28T11:03:28;37.73;;;15.80;;
6089;SDS011;3073;42.660;23.316;2023-02-28T11:05:57;24.27;;;12.40;;
6089;SDS011;3073;42.660;23.316;2023-02-28T11:08:25;33.90;;;13.97;;
6089;SDS011;3073;42.660;23.316;2023-02-28T11:10:55;29.47;;;15.73;;
6089;SDS011;3073;42.660;23.316;2023-02-28T11:13:26;33.90;;;14.93;;
6089;SDS011;3073;42.660;23.316;2023-02-28T11:15:57;36.43;;;15.87;;
6089;SDS011;3073;42.660;23.316;2023-02-28T11:18:27;44.17;;;15.57;;
6089;SDS011;3073;42.660;23.316;2023-02-28T11:20:57;27.97;;;14.33;;
6089;SDS011;3073;42.660;23.316;2023-02-28T11:23:26;29.27;;;15.67;;
6089;SDS011;3073;42.660;23.316;2023-02-28T11:25:56;35.60;;;16.37;;
6089;SDS011;3073;42.660;23.316;2023-02-28T11:28:27;36.57;;;15.60;;
6089;SDS011;3073;42.660;23.316;2023-02-28T11:31:00;47.37;;;14.93;;
6089;SDS011;3073;42.660;23.316;2023-02-28T11:33:49;40.57;;;16.47;;
6089;SDS011;3073;42.660;23.316;2023-02-28T11:36:18;46.57;;;15.90;;
6089;SDS011;3073;42.660;23.316;2023-02-28T11:38:49;48.00;;;16.00;;
6089;SDS011;3073;42.660;23.316;2023-02-28T11:41:30;27.50;;;15.30;;
6089;SDS011;3073;42.660;23.316;2023-02-28T11:44:16;27.83;;;15.37;;
6089;SDS011;3073;42.660;23.316;2023-02-28T11:46:56;34.40;;;17.17;;
6089;SDS011;3073;42.660;23.316;2023-02-28T11:49:35;32.73;;;14.50;;
6089;SDS011;3073;42.660;23.316;2023-02-28T11:52:13;40.00;;;14.53;;
6089;SDS011;3073;42.660;23.316;2023-02-28T11:54:54;40.60;;;16.07;;
6089;SDS011;3073;42.660;23.316;2023-02-28T11:57:35;35.90;;;14.53;;
6089;SDS011;3073;42.660;23.316;2023-02-28T12:00:19;36.00;;;16.07;;
6089;SDS011;3073;42.660;23.316;2023-02-28T12:03:01;37.83;;;16.37;;
6089;SDS011;3073;42.660;23.316;2023-02-28T12:05:43;42.83;;;17.47;;
6089;SDS011;3073;42.660;23.316;2023-02-28T12:08:20;36.20;;;18.30;;
6089;SDS011;3073;42.660;23.316;2023-02-28T12:11:05;39.73;;;15.53;;
6089;SDS011;3073;42.660;23.316;2023-02-28T12:13:40;38.53;;;16.33;;
6089;SDS011;3073;42.660;23.316;2023-02-28T12:19:16;46.30;;;17.00;;
6089;SDS011;3073;42.660;23.316;2023-02-28T12:21:53;40.93;;;16.67;;
6089;SDS011;3073;42.660;23.316;2023-02-28T12:25:22;38.40;;;17.77;;
6089;SDS011;3073;42.660;23.316;2023-02-28T12:28:02;47.30;;;16.37;;
6089;SDS011;3073;42.660;23.316;2023-02-28T12:30:32;32.13;;;16.47;;
6089;SDS011;3073;42.660;23.316;2023-02-28T12:33:03;29.90;;;14.10;;
6089;SDS011;3073;42.660;23.316;2023-02-28T12:35:33;43.40;;;16.50;;
6089;SDS011;3073;42.660;23.316;2023-02-28T12:38:06;37.43;;;17.60;;
6089;SDS011;3073;42.660;23.316;2023-02-28T12:40:43;44.03;;;16.57;;
6089;SDS011;3073;42.660;23.316;2023-02-28T12:43:15;39.53;;;16.07;;
6089;SDS011;3073;42.660;23.316;2023-02-28T12:45:45;35.87;;;15.60;;
6089;SDS011;3073;42.660;23.316;2023-02-28T12:48:16;39.50;;;15.03;;
6089;SDS011;3073;42.660;23.316;2023-02-28T12:50:48;33.93;;;16.60;;
6089;SDS011;3073;42.660;23.316;2023-02-28T12:53:17;43.27;;;17.77;;
6089;SDS011;3073;42.660;23.316;2023-02-28T12:55:53;30.40;;;15.40;;
6089;SDS011;3073;42.660;23.316;2023-02-28T12:58:31;31.87;;;15.60;;
6089;SDS011;3073;42.660;23.316;2023-02-28T13:01:13;41.37;;;16.53;;
6089;SDS011;3073;42.660;23.316;2023-02-28T13:04:14;31.63;;;15.30;;
6089;SDS011;3073;42.660;23.316;2023-02-28T13:06:59;34.60;;;15.27;;
6089;SDS011;3073;42.660;23.316;2023-02-28T13:09:52;31.37;;;14.50;;
6089;SDS011;3073;42.660;23.316;2023-02-28T13:12:21;29.30;;;14.87;;
6089;SDS011;3073;42.660;23.316;2023-02-28T13:14:49;31.43;;;16.00;;
6089;SDS011;3073;42.660;23.316;2023-02-28T13:17:18;30.43;;;16.30;;
6089;SDS011;3073;42.660;23.316;2023-02-28T13:19:46;37.53;;;16.10;;
6089;SDS011;3073;42.660;23.316;2023-02-28T13:22:36;26.43;;;14.20;;
6089;SDS011;3073;42.660;23.316;2023-02-28T13:31:17;24.80;;;12.90;;
6089;SDS011;3073;42.660;23.316;2023-02-28T13:36:40;33.10;;;13.30;;
6089;SDS011;3073;42.660;23.316;2023-02-28T13:42:31;29.20;;;13.40;;
6089;SDS011;3073;42.660;23.316;2023-02-28T13:45:36;21.77;;;11.90;;
6089;SDS011;3073;42.660;23.316;2023-02-28T13:48:18;23.77;;;12.67;;
6089;SDS011;3073;42.660;23.316;2023-02-28T13:50:48;30.30;;;12.77;;
6089;SDS011;3073;42.660;23.316;2023-02-28T13:53:39;26.47;;;10.93;;
6089;SDS011;3073;42.660;23.316;2023-02-28T13:56:31;27.50;;;11.07;;
6089;SDS011;3073;42.660;23.316;2023-02-28T13:59:21;24.80;;;10.90;;
6089;SDS011;3073;42.660;23.316;2023-02-28T14:05:04;32.33;;;11.50;;
6089;SDS011;3073;42.660;23.316;2023-02-28T14:07:38;34.13;;;11.87;;
6089;SDS011;3073;42.660;23.316;2023-02-28T14:10:15;24.20;;;11.10;;
6089;SDS011;3073;42.660;23.316;2023-02-28T14:12:58;30.17;;;12.40;;
6089;SDS011;3073;42.660;23.316;2023-02-28T14:15:49;39.60;;;14.60;;
6089;SDS011;3073;42.660;23.316;2023-02-28T14:18:24;33.23;;;13.70;;
6089;SDS011;3073;42.660;23.316;2023-02-28T14:21:01;38.77;;;14.93;;
6089;SDS011;3073;42.660;23.316;2023-02-28T14:23:43;35.50;;;15.80;;
6089;SDS011;3073;42.660;23.316;2023-02-28T14:26:27;28.83;;;12.93;;
6089;SDS011;3073;42.660;23.316;2023-02-28T14:29:12;36.23;;;12.57;;
6089;SDS011;3073;42.660;23.316;2023-02-28T14:31:52;34.73;;;14.50;;
6089;SDS011;3073;42.660;23.316;2023-02-28T14:34:26;25.20;;;12.67;;
6089;SDS011;3073;42.660;23.316;2023-02-28T14:37:10;27.27;;;12.33;;
6089;SDS011;3073;42.660;23.316;2023-02-28T14:39:43;30.00;;;13.00;;
6089;SDS011;3073;42.660;23.316;2023-02-28T14:42:45;28.10;;;12.97;;
6089;SDS011;3073;42.660;23.316;2023-02-28T14:45:22;36.13;;;15.43;;
6089;SDS011;3073;42.660;23.316;2023-02-28T14:47:50;33.67;;;13.70;;
6089;SDS011;3073;42.660;23.316;2023-02-28T14:50:18;43.43;;;15.30;;
6089;SDS011;3073;42.660;23.316;2023-02-28T14:52:53;29.33;;;12.80;;
6089;SDS011;3073;42.660;23.316;2023-02-28T14:55:23;26.83;;;13.60;;
6089;SDS011;3073;42.660;23.316;2023-02-28T14:57:53;38.90;;;12.90;;
6089;SDS011;3073;42.660;23.316;2023-02-28T15:00:22;34.77;;;11.40;;
6089;SDS011;3073;42.660;23.316;2023-02-28T15:02:52;22.90;;;11.87;;
6089;SDS011;3073;42.660;23.316;2023-02-28T15:05:26;29.37;;;12.50;;
6089;SDS011;3073;42.660;23.316;2023-02-28T15:08:02;30.77;;;12.67;;
6089;SDS011;3073;42.660;23.316;2023-02-28T15:10:32;29.20;;;12.30;;
6089;SDS011;3073;42.660;23.316;2023-02-28T15:13:04;46.87;;;15.00;;
6089;SDS011;3073;42.660;23.316;2023-02-28T15:15:40;26.20;;;13.10;;
6089;SDS011;3073;42.660;23.316;2023-02-28T15:18:11;28.83;;;12.97;;
6089;SDS011;3073;42.660;23.316;2023-02-28T15:20:46;30.77;;;12.73;;
6089;SDS011;3073;42.660;23.316;2023-02-28T15:23:15;28.73;;;13.40;;
6089;SDS011;3073;42.660;23.316;2023-02-28T15:25:42;42.00;;;13.83;;
6089;SDS011;3073;42.660;23.316;2023-02-28T15:28:12;30.03;;;13.33;;
6089;SDS011;3073;42.660;23.316;2023-02-28T15:30:50;33.87;;;13.80;;